SoundGuardian — WDI8675 — position and weather

sailwx.info

Track history (hours):
 
Tides and Currents Weather Stations Pressure Air Temp Water Temp Dewpoint Dewpoint Depression Visibility Wind Speed Wind Dir Waves Ship Positions

Oceanographic research ship SoundGuardian (United States)

Owner: King County Environmental Laboratory, Seattle, WA. More information available from US FCC via Universal Licensing System and Coast Guard Vessel Documentation Center.

Last reported at 2019-Dec-11 22:06 UTC. Time now 2019-Dec-12 08:57 UTC.
Position N 47°39' W 122°22'.

Length 13 m; draft 1 m.

Type: Other ship. MMSI: 367741020.

Date/timePositionNaut miles runAvg speedWind from/ knotsBaromVisibWave heightAir tempDewpointWater temp
2019-Dec-11 22:06N 47°39' W 122°22'8 6.9
2019-Dec-11 21:00N 47°32' W 122°26'7 4.8
2019-Dec-11 19:30N 47°25' W 122°24'14 0.6
2019-Dec-10 18:30N 47°39' W 122°22'4 2.0
2019-Dec-10 16:31N 47°36' W 122°26'4 0.2
2019-Dec-09 22:01N 47°40' W 122°26'9 9.1
2019-Dec-09 20:58N 47°32' W 122°19'3 5.7
2019-Dec-09 20:30N 47°34' W 122°21'1 1.1
2019-Dec-09 20:00N 47°35' W 122°21'12 6.2
2019-Dec-09 18:00N 47°47' W 122°25'  
2019-Dec-04 19:00N 47°40' W 122°25'0 0.1
2019-Dec-04 17:00N 47°40' W 122°26'3 0.2
2019-Dec-04 00:10N 47°39' W 122°22'2 2.9
2019-Dec-03 23:31N 47°40' W 122°24'1 0.5
2019-Dec-03 21:30N 47°40' W 122°26'0 0.0
2019-Dec-03 21:00N 47°40' W 122°26'0 0.5
2019-Dec-03 20:31N 47°40' W 122°26'0 0.1
2019-Dec-03 20:01N 47°40' W 122°26'0 0.1
2019-Dec-03 17:00N 47°40' W 122°26'3 1.4
2019-Dec-03 15:00N 47°39' W 122°22'2 0.1
2019-Dec-02 23:01N 47°40' W 122°25'1 2.0
2019-Dec-02 22:30N 47°40' W 122°26'0 0.0
2019-Dec-02 21:31N 47°40' W 122°26'0 0.0
2019-Dec-02 19:31N 47°40' W 122°26'0 0.1
2019-Dec-02 19:00N 47°40' W 122°26'0 0.0
2019-Dec-02 18:31N 47°40' W 122°26'0 0.1
2019-Dec-02 17:31N 47°40' W 122°26'0 0.2
2019-Dec-02 17:00N 47°40' W 122°26'3 3.1
2019-Dec-02 16:00N 47°39' W 122°22'  
Track history (hours):
 
Tides and Currents Weather Stations Pressure Air Temp Water Temp Dewpoint Dewpoint Depression Visibility Wind Speed Wind Dir Waves Ship Positions

Oceanographic research ship SoundGuardian (United States)

Owner: King County Environmental Laboratory, Seattle, WA. More information available from US FCC via Universal Licensing System and Coast Guard Vessel Documentation Center.

Last reported at 2019-Dec-11 22:06 UTC. Time now 2019-Dec-12 08:57 UTC.
Position N 47°39' W 122°22'.

Length 13 m; draft 1 m.

Type: Other ship. MMSI: 367741020.

Date/timePositionNaut miles runAvg speedWind from/ knotsBaromVisibWave heightAir tempDewpointWater temp
2019-Dec-11 22:06N 47°39' W 122°22'8 6.9
2019-Dec-11 21:00N 47°32' W 122°26'7 4.8
2019-Dec-11 19:30N 47°25' W 122°24'14 0.6
2019-Dec-10 18:30N 47°39' W 122°22'4 2.0
2019-Dec-10 16:31N 47°36' W 122°26'4 0.2
2019-Dec-09 22:01N 47°40' W 122°26'9 9.1
2019-Dec-09 20:58N 47°32' W 122°19'3 5.7
2019-Dec-09 20:30N 47°34' W 122°21'1 1.1
2019-Dec-09 20:00N 47°35' W 122°21'12 6.2
2019-Dec-09 18:00N 47°47' W 122°25'  
2019-Dec-04 19:00N 47°40' W 122°25'0 0.1
2019-Dec-04 17:00N 47°40' W 122°26'3 0.2
2019-Dec-04 00:10N 47°39' W 122°22'2 2.9
2019-Dec-03 23:31N 47°40' W 122°24'1 0.5
2019-Dec-03 21:30N 47°40' W 122°26'0 0.0
2019-Dec-03 21:00N 47°40' W 122°26'0 0.5
2019-Dec-03 20:31N 47°40' W 122°26'0 0.1
2019-Dec-03 20:01N 47°40' W 122°26'0 0.1
2019-Dec-03 17:00N 47°40' W 122°26'3 1.4
2019-Dec-03 15:00N 47°39' W 122°22'2 0.1
2019-Dec-02 23:01N 47°40' W 122°25'1 2.0
2019-Dec-02 22:30N 47°40' W 122°26'0 0.0
2019-Dec-02 21:31N 47°40' W 122°26'0 0.0
2019-Dec-02 19:31N 47°40' W 122°26'0 0.1
2019-Dec-02 19:00N 47°40' W 122°26'0 0.0
2019-Dec-02 18:31N 47°40' W 122°26'0 0.1
2019-Dec-02 17:31N 47°40' W 122°26'0 0.2
2019-Dec-02 17:00N 47°40' W 122°26'3 3.1
2019-Dec-02 16:00N 47°39' W 122°22'  

Dump ship's entire track history